Humidity-temperature Sensor

Selected Measurement Type: Relative Humidity

 
Relative Humidity [%]     6 entries per hour
Showing data from 4/12/2018 (00:00:00 Z) to 4/9/2018 (00:01:00 Z)
Previous Next [ Day | 3-Days | 7-Days ]
First Last
Prev [ Day | 3-Days | 7-Days ] Next
First Last

Start Time:     :
End Time:     :     
Time (in GMT) :00 :50 :40 :30 :20 :10
Previous Next [ Day | 3-Days | 7-Days ]
First Last
Prev [ Day | 3-Days | 7-Days ] Next
First Last


123 => good data
MM => data is determined as missing
-- => data not received/configured
Back to Top Back to Top
4/12/2018 00:00 to 23:10 82.58 81.70 82.94 81.91 81.32 81.15
4/11/2018 23:00 to 22:10 82.01 81.51 81.87 79.87 80.77 81.15
4/11/2018 22:00 to 21:10 79.91 81.53 79.89 80.50 81.09 81.40
4/11/2018 21:00 to 20:10 80.71 80.94 81.57 80.94 80.94 80.01
4/11/2018 20:00 to 19:10 81.47 81.74 81.95 81.66 83.32 81.66
4/11/2018 19:00 to 18:10 81.95 83.03 81.45 80.41 82.16 83.34
4/11/2018 18:00 to 17:10 81.40 80.75 79.99 83.05 82.04 80.94
4/11/2018 17:00 to 16:10 81.95 82.01 81.24 81.74 80.27 81.61
4/11/2018 16:00 to 15:10 81.87 82.06 81.89 82.94 83.03 82.98
4/11/2018 15:00 to 14:10 84.04 84.12 81.24 83.17 82.08 78.81
4/11/2018 14:00 to 13:10 79.38 81.89 83.45 83.80 82.54 81.70
4/11/2018 13:00 to 12:10 81.61 79.76 80.88 81.34 81.30 80.08
4/11/2018 12:00 to 11:10 80.33 80.98 79.38 81.13 79.43 79.00
4/11/2018 11:00 to 10:10 79.51 80.35 79.03 79.32 79.45 79.38
4/11/2018 10:00 to 9:10 80.18 80.63 80.50 80.52 80.23 80.12
4/11/2018 09:00 to 8:10 78.50 80.75 79.05 81.55 80.52 80.39
4/11/2018 08:00 to 7:10 79.70 80.71 81.93 82.48 81.00 79.68
4/11/2018 07:00 to 6:10 80.96 79.97 79.85 76.56 78.48 77.91
4/11/2018 06:00 to 5:10 77.91 78.56 76.41 75.91 77.43 76.56
4/11/2018 05:00 to 4:10 78.77 76.96 75.91 78.77 77.66 76.10
4/11/2018 04:00 to 3:10 76.90 77.78 76.94 75.72 76.69 75.97
4/11/2018 03:00 to 2:10 75.74 75.83 78.56 77.53 77.64 77.80
4/11/2018 02:00 to 1:10 76.58 74.77 77.78 76.84 76.96 75.64
4/11/2018 01:00 to 0:10 76.25 75.87 78.35 76.06 76.10 77.53
4/11/2018 00:00 to 23:10 78.44 79.55 78.77 78.88 78.10 77.09
4/10/2018 23:00 to 22:10 76.94 75.09 76.79 74.54 74.46 77.09
4/10/2018 22:00 to 21:10 77.91 77.61 76.84 76.73 74.12 74.96
4/10/2018 21:00 to 20:10 76.01 76.01 76.84 76.41 73.74 77.57
4/10/2018 20:00 to 19:10 76.46 76.16 76.79 78.65 77.74 77.38
4/10/2018 19:00 to 18:10 77.00 77.05 76.88 79.07 77.32 75.99
4/10/2018 18:00 to 17:10 75.24 75.83 74.65 76.25 79.00 78.37
4/10/2018 17:00 to 16:10 74.94 76.04 76.77 74.75 73.28 75.38
4/10/2018 16:00 to 15:10 75.32 73.15 74.04 73.91 75.11 75.38
4/10/2018 15:00 to 14:10 77.15 74.86 75.24 77.76 77.83 77.36
4/10/2018 14:00 to 13:10 78.06 79.21 78.56 77.59 78.48 75.68
4/10/2018 13:00 to 12:10 77.05 77.74 75.70 75.83 75.36 75.13
4/10/2018 12:00 to 11:10 77.24 76.98 76.33 78.14 74.37 75.40
4/10/2018 11:00 to 10:10 76.23 75.49 75.80 78.67 75.99 76.37
4/10/2018 10:00 to 9:10 74.69 73.87 73.78 75.87 74.69 76.44
4/10/2018 09:00 to 8:10 75.70 74.12 75.53 74.29 75.38 74.94
4/10/2018 08:00 to 7:10 75.85 74.75 76.37 76.12 74.98 72.88
4/10/2018 07:00 to 6:10 75.17 74.90 74.54 74.73 75.32 76.96
4/10/2018 06:00 to 5:10 78.20 76.41 77.38 76.56 75.19 75.72
4/10/2018 05:00 to 4:10 75.28 75.15 74.52 76.39 75.09 76.06
4/10/2018 04:00 to 3:10 77.03 76.06 76.58 75.74 79.51 78.52
4/10/2018 03:00 to 2:10 78.18 77.34 75.85 76.65 76.63 76.23
4/10/2018 02:00 to 1:10 76.77 75.83 75.55 76.81 75.74 77.40
4/10/2018 01:00 to 0:10 74.48 76.20 77.03 76.04 76.86 76.39
4/10/2018 00:00 to 23:10 75.03 75.28 77.76 75.68 74.27 75.72
4/9/2018 23:00 to 22:10 75.85 73.38 74.10 74.48 73.93 71.76
4/9/2018 22:00 to 21:10 73.47 75.36 75.03 76.12 77.64 78.12
4/9/2018 21:00 to 20:10 75.34 74.20 76.12 76.27 75.17 75.00
4/9/2018 20:00 to 19:10 72.96 73.85 75.09 74.67 73.68 73.91
4/9/2018 19:00 to 18:10 75.68 74.33 73.03 76.04 74.86 75.45
4/9/2018 18:00 to 17:10 74.44 73.91 75.28 73.78 74.08 73.68
4/9/2018 17:00 to 16:10 72.84 74.18 74.04 73.99 72.56 74.39
4/9/2018 16:00 to 15:10 72.60 73.51 72.96 72.67 73.83 74.18
4/9/2018 15:00 to 14:10 73.13 74.04 71.99 73.51 74.44 73.78
4/9/2018 14:00 to 13:10 72.56 73.05 73.99 75.21 74.44 74.31
4/9/2018 13:00 to 12:10 75.47 73.72 74.92 75.26 76.16 75.05
4/9/2018 12:00 to 11:10 76.63 75.45 75.00 78.35 76.86 76.92
4/9/2018 11:00 to 10:10 76.31 75.78 77.19 77.09 77.78 76.46
4/9/2018 10:00 to 9:10 74.94 76.98 76.65 75.21 73.72 75.91
4/9/2018 09:00 to 8:10 76.10 74.81 75.38 74.41 74.54 75.03
4/9/2018 08:00 to 7:10 74.84 74.10 75.09 75.24 76.81 74.84
4/9/2018 07:00 to 6:10 73.97 75.15 75.36 76.31 75.13 75.72
4/9/2018 06:00 to 5:10 74.98 74.41 75.80 74.20 73.74 73.28
4/9/2018 05:00 to 4:10 74.41 73.57 75.09 74.29 75.34 75.13
4/9/2018 04:00 to 3:10 75.64 74.81 73.87 75.09 74.94 75.15
4/9/2018 03:00 to 2:10 75.83 74.04 73.64 72.48 71.76 72.35
4/9/2018 02:00 to 1:10 74.14 73.17 73.55 74.48 73.34 73.32
4/9/2018 01:00 to 0:10 72.33 70.25 72.16 73.45 72.75 72.01